Oskaloosa, Iowa
Current Conditions -  °F | °C
As of 3:35 PM on Saturday 22 Nov 2014 (Local Time) from KOOA Reporting Station
Haze Haze  
Wind Chill: 54°   Ceiling: 1600
Heat Index: 54°   Visibility: 5mi
Dew Point: 51°   Wind: 7mph
Humidity: 91%   Direction: 180°S
Pressure: 29.77"   Gusts: NA
Location:  41.3°N, 92.64°W
Report Text: KOOA 222135Z AUTO 18006KT 5SM BR OVC016 12/11 A2977 RMK AO2 T01210107
Loading
Personal Weather Stations






























Interactive Weather Map New forecast layout! Learn more

10-Day Weather Forecast

Advertisements
Track Severe Weather on mobile